sensor_id;sensor_type;location;lat;lon;timestamp;temperature;humidity
26707;DHT22;14319;49.422;10.934;2023-02-12T00:01:50;5.10;85.40
26707;DHT22;14319;49.422;10.934;2023-02-12T00:03:50;5.10;85.60
26707;DHT22;14319;49.422;10.934;2023-02-12T00:05:51;5.10;85.90
26707;DHT22;14319;49.422;10.934;2023-02-12T00:07:52;5.10;85.80
26707;DHT22;14319;49.422;10.934;2023-02-12T00:09:53;5.10;86.20
26707;DHT22;14319;49.422;10.934;2023-02-12T00:11:53;5.20;85.80
26707;DHT22;14319;49.422;10.934;2023-02-12T00:13:55;5.30;85.50
26707;DHT22;14319;49.422;10.934;2023-02-12T00:15:56;5.40;85.00
26707;DHT22;14319;49.422;10.934;2023-02-12T00:17:56;5.40;84.60
26707;DHT22;14319;49.422;10.934;2023-02-12T00:19:57;5.40;84.40
26707;DHT22;14319;49.422;10.934;2023-02-12T00:21:58;5.50;84.30
26707;DHT22;14319;49.422;10.934;2023-02-12T00:23:59;5.60;83.80
26707;DHT22;14319;49.422;10.934;2023-02-12T00:25:59;5.50;83.70
26707;DHT22;14319;49.422;10.934;2023-02-12T00:28:00;5.50;83.70
26707;DHT22;14319;49.422;10.934;2023-02-12T00:30:01;5.50;83.50
26707;DHT22;14319;49.422;10.934;2023-02-12T00:32:02;5.50;83.50
26707;DHT22;14319;49.422;10.934;2023-02-12T00:34:03;5.50;84.00
26707;DHT22;14319;49.422;10.934;2023-02-12T00:36:04;5.40;84.40
26707;DHT22;14319;49.422;10.934;2023-02-12T00:38:04;5.30;84.00
26707;DHT22;14319;49.422;10.934;2023-02-12T00:40:06;5.30;84.10
26707;DHT22;14319;49.422;10.934;2023-02-12T00:42:07;5.40;83.40
26707;DHT22;14319;49.422;10.934;2023-02-12T00:44:07;5.30;84.10
26707;DHT22;14319;49.422;10.934;2023-02-12T00:46:08;5.30;84.40
26707;DHT22;14319;49.422;10.934;2023-02-12T00:48:09;5.30;84.40
26707;DHT22;14319;49.422;10.934;2023-02-12T00:50:10;5.30;85.60
26707;DHT22;14319;49.422;10.934;2023-02-12T00:52:10;5.30;84.60
26707;DHT22;14319;49.422;10.934;2023-02-12T00:54:11;5.40;84.50
26707;DHT22;14319;49.422;10.934;2023-02-12T00:56:11;5.40;84.00
26707;DHT22;14319;49.422;10.934;2023-02-12T00:58:12;5.60;83.60
26707;DHT22;14319;49.422;10.934;2023-02-12T01:00:14;5.60;83.20
26707;DHT22;14319;49.422;10.934;2023-02-12T01:02:15;5.60;83.20
26707;DHT22;14319;49.422;10.934;2023-02-12T01:04:16;5.50;83.90
26707;DHT22;14319;49.422;10.934;2023-02-12T01:06:17;5.40;84.20
26707;DHT22;14319;49.422;10.934;2023-02-12T01:08:19;5.40;84.50
26707;DHT22;14319;49.422;10.934;2023-02-12T01:10:20;5.30;84.80
26707;DHT22;14319;49.422;10.934;2023-02-12T01:12:21;5.30;84.90
26707;DHT22;14319;49.422;10.934;2023-02-12T01:14:22;5.30;84.90
26707;DHT22;14319;49.422;10.934;2023-02-12T01:16:23;5.30;85.40
26707;DHT22;14319;49.422;10.934;2023-02-12T01:18:24;5.30;85.40
26707;DHT22;14319;49.422;10.934;2023-02-12T01:20:24;5.20;85.60
26707;DHT22;14319;49.422;10.934;2023-02-12T01:22:26;5.30;85.10
26707;DHT22;14319;49.422;10.934;2023-02-12T01:24:27;5.30;85.10
26707;DHT22;14319;49.422;10.934;2023-02-12T01:26:28;5.30;85.40
26707;DHT22;14319;49.422;10.934;2023-02-12T01:28:29;5.20;85.80
26707;DHT22;14319;49.422;10.934;2023-02-12T01:30:30;5.30;85.30
26707;DHT22;14319;49.422;10.934;2023-02-12T01:32:30;5.40;84.90
26707;DHT22;14319;49.422;10.934;2023-02-12T01:34:31;5.40;84.50
26707;DHT22;14319;49.422;10.934;2023-02-12T01:36:32;5.40;84.50
26707;DHT22;14319;49.422;10.934;2023-02-12T01:38:33;5.40;84.70
26707;DHT22;14319;49.422;10.934;2023-02-12T01:40:33;5.40;84.50
26707;DHT22;14319;49.422;10.934;2023-02-12T01:42:37;5.30;85.70
26707;DHT22;14319;49.422;10.934;2023-02-12T01:44:44;5.30;85.30
26707;DHT22;14319;49.422;10.934;2023-02-12T01:46:59;4.70;86.60
26707;DHT22;14319;49.422;10.934;2023-02-12T01:49:02;4.70;87.40
26707;DHT22;14319;49.422;10.934;2023-02-12T01:51:06;4.70;86.90
26707;DHT22;14319;49.422;10.934;2023-02-12T01:53:09;4.70;87.50
26707;DHT22;14319;49.422;10.934;2023-02-12T01:55:10;4.60;88.40
26707;DHT22;14319;49.422;10.934;2023-02-12T01:57:13;4.50;87.70
26707;DHT22;14319;49.422;10.934;2023-02-12T01:59:13;4.70;87.50
26707;DHT22;14319;49.422;10.934;2023-02-12T02:01:18;4.60;88.50
26707;DHT22;14319;49.422;10.934;2023-02-12T02:03:20;4.50;89.20
26707;DHT22;14319;49.422;10.934;2023-02-12T02:07:38;4.50;89.50
26707;DHT22;14319;49.422;10.934;2023-02-12T02:09:40;4.50;89.60
26707;DHT22;14319;49.422;10.934;2023-02-12T02:11:40;4.70;89.60
26707;DHT22;14319;49.422;10.934;2023-02-12T02:14:00;4.60;89.20
26707;DHT22;14319;49.422;10.934;2023-02-12T02:16:24;4.70;88.70
26707;DHT22;14319;49.422;10.934;2023-02-12T02:19:02;4.70;89.30
26707;DHT22;14319;49.422;10.934;2023-02-12T02:21:00;4.70;89.00
26707;DHT22;14319;49.422;10.934;2023-02-12T02:32:32;5.10;87.60
26707;DHT22;14319;49.422;10.934;2023-02-12T02:35:10;5.10;87.80
26707;DHT22;14319;49.422;10.934;2023-02-12T02:37:47;5.20;86.80
26707;DHT22;14319;49.422;10.934;2023-02-12T02:40:40;5.30;86.50
26707;DHT22;14319;49.422;10.934;2023-02-12T02:42:40;5.20;86.10
26707;DHT22;14319;49.422;10.934;2023-02-12T02:44:47;5.20;86.90
26707;DHT22;14319;49.422;10.934;2023-02-12T02:46:51;5.10;86.50
26707;DHT22;14319;49.422;10.934;2023-02-12T02:48:59;5.20;86.80
26707;DHT22;14319;49.422;10.934;2023-02-12T02:51:06;5.20;86.70
26707;DHT22;14319;49.422;10.934;2023-02-12T02:53:24;5.20;86.60
26707;DHT22;14319;49.422;10.934;2023-02-12T02:55:27;5.20;86.50
26707;DHT22;14319;49.422;10.934;2023-02-12T02:57:37;5.30;86.20
26707;DHT22;14319;49.422;10.934;2023-02-12T02:59:45;5.40;85.40
26707;DHT22;14319;49.422;10.934;2023-02-12T03:01:53;5.40;85.50
26707;DHT22;14319;49.422;10.934;2023-02-12T03:04:11;5.40;85.20
26707;DHT22;14319;49.422;10.934;2023-02-12T03:06:31;5.40;85.50
26707;DHT22;14319;49.422;10.934;2023-02-12T03:08:42;5.40;85.90
26707;DHT22;14319;49.422;10.934;2023-02-12T03:10:50;5.20;86.20
26707;DHT22;14319;49.422;10.934;2023-02-12T03:13:13;5.20;86.30
26707;DHT22;14319;49.422;10.934;2023-02-12T03:15:45;5.20;86.60
26707;DHT22;14319;49.422;10.934;2023-02-12T03:17:47;5.20;86.80
26707;DHT22;14319;49.422;10.934;2023-02-12T03:19:59;5.10;87.20
26707;DHT22;14319;49.422;10.934;2023-02-12T03:22:15;5.20;86.00
26707;DHT22;14319;49.422;10.934;2023-02-12T03:24:27;5.00;86.00
26707;DHT22;14319;49.422;10.934;2023-02-12T03:26:46;5.10;85.80
26707;DHT22;14319;49.422;10.934;2023-02-12T03:28:47;5.10;85.60
26707;DHT22;14319;49.422;10.934;2023-02-12T03:33:21;5.10;85.10
26707;DHT22;14319;49.422;10.934;2023-02-12T03:35:33;5.10;85.30
26707;DHT22;14319;49.422;10.934;2023-02-12T03:37:47;5.20;84.70
26707;DHT22;14319;49.422;10.934;2023-02-12T03:39:55;5.10;84.70
26707;DHT22;14319;49.422;10.934;2023-02-12T03:44:17;5.00;85.10
26707;DHT22;14319;49.422;10.934;2023-02-12T03:46:29;4.80;86.00
26707;DHT22;14319;49.422;10.934;2023-02-12T03:48:44;4.80;86.60
26707;DHT22;14319;49.422;10.934;2023-02-12T03:50:56;4.80;86.50
26707;DHT22;14319;49.422;10.934;2023-02-12T03:52:57;4.80;86.50
26707;DHT22;14319;49.422;10.934;2023-02-12T03:54:58;4.80;86.70
26707;DHT22;14319;49.422;10.934;2023-02-12T03:57:05;4.90;86.70
26707;DHT22;14319;49.422;10.934;2023-02-12T03:59:07;4.90;86.90
26707;DHT22;14319;49.422;10.934;2023-02-12T04:01:08;4.90;87.30
26707;DHT22;14319;49.422;10.934;2023-02-12T04:03:08;5.00;86.80
26707;DHT22;14319;49.422;10.934;2023-02-12T04:05:21;5.00;87.30
26707;DHT22;14319;49.422;10.934;2023-02-12T04:07:22;4.90;87.50
26707;DHT22;14319;49.422;10.934;2023-02-12T04:09:24;5.00;87.40
26707;DHT22;14319;49.422;10.934;2023-02-12T04:16:21;5.00;87.50
26707;DHT22;14319;49.422;10.934;2023-02-12T04:18:33;5.00;87.80
26707;DHT22;14319;49.422;10.934;2023-02-12T04:21:03;5.00;87.90
26707;DHT22;14319;49.422;10.934;2023-02-12T04:28:21;5.10;88.00
26707;DHT22;14319;49.422;10.934;2023-02-12T04:30:36;5.00;88.30
26707;DHT22;14319;49.422;10.934;2023-02-12T04:32:46;5.00;88.30
26707;DHT22;14319;49.422;10.934;2023-02-12T04:39:37;5.00;88.40
26707;DHT22;14319;49.422;10.934;2023-02-12T04:41:40;5.00;88.40
26707;DHT22;14319;49.422;10.934;2023-02-12T04:43:41;5.00;88.70
26707;DHT22;14319;49.422;10.934;2023-02-12T04:45:41;5.10;88.50
26707;DHT22;14319;49.422;10.934;2023-02-12T04:47:42;5.10;88.70
26707;DHT22;14319;49.422;10.934;2023-02-12T04:49:42;5.00;88.80
26707;DHT22;14319;49.422;10.934;2023-02-12T04:51:43;5.10;88.90
26707;DHT22;14319;49.422;10.934;2023-02-12T04:53:44;5.00;89.20
26707;DHT22;14319;49.422;10.934;2023-02-12T04:55:45;5.00;89.50
26707;DHT22;14319;49.422;10.934;2023-02-12T04:57:47;5.00;89.60
26707;DHT22;14319;49.422;10.934;2023-02-12T04:59:47;4.90;89.80
26707;DHT22;14319;49.422;10.934;2023-02-12T05:01:48;5.00;89.80
26707;DHT22;14319;49.422;10.934;2023-02-12T05:03:48;4.90;90.00
26707;DHT22;14319;49.422;10.934;2023-02-12T05:05:49;4.90;90.10
26707;DHT22;14319;49.422;10.934;2023-02-12T05:07:49;4.90;90.10
26707;DHT22;14319;49.422;10.934;2023-02-12T05:09:50;4.90;90.20
26707;DHT22;14319;49.422;10.934;2023-02-12T05:11:51;4.90;90.40
26707;DHT22;14319;49.422;10.934;2023-02-12T05:13:52;4.90;90.40
26707;DHT22;14319;49.422;10.934;2023-02-12T05:15:53;4.90;90.00
26707;DHT22;14319;49.422;10.934;2023-02-12T05:17:53;4.90;89.90
26707;DHT22;14319;49.422;10.934;2023-02-12T05:19:54;4.90;89.80
26707;DHT22;14319;49.422;10.934;2023-02-12T05:21:54;5.00;89.40
26707;DHT22;14319;49.422;10.934;2023-02-12T05:23:55;5.10;89.30
26707;DHT22;14319;49.422;10.934;2023-02-12T05:26:00;5.00;89.20
26707;DHT22;14319;49.422;10.934;2023-02-12T05:28:01;5.00;89.40
26707;DHT22;14319;49.422;10.934;2023-02-12T05:30:02;5.00;89.30
26707;DHT22;14319;49.422;10.934;2023-02-12T05:32:03;5.00;89.00
26707;DHT22;14319;49.422;10.934;2023-02-12T05:34:07;5.00;88.90
26707;DHT22;14319;49.422;10.934;2023-02-12T05:36:13;5.10;89.10
26707;DHT22;14319;49.422;10.934;2023-02-12T05:38:14;5.10;88.80
26707;DHT22;14319;49.422;10.934;2023-02-12T05:40:14;5.10;88.70
26707;DHT22;14319;49.422;10.934;2023-02-12T05:42:15;5.00;88.80
26707;DHT22;14319;49.422;10.934;2023-02-12T05:44:16;5.10;88.90
26707;DHT22;14319;49.422;10.934;2023-02-12T05:46:18;5.10;88.80
26707;DHT22;14319;49.422;10.934;2023-02-12T05:48:18;5.10;88.70
26707;DHT22;14319;49.422;10.934;2023-02-12T05:50:19;5.10;89.10
26707;DHT22;14319;49.422;10.934;2023-02-12T05:52:19;5.10;89.30
26707;DHT22;14319;49.422;10.934;2023-02-12T05:54:20;5.10;89.50
26707;DHT22;14319;49.422;10.934;2023-02-12T05:56:26;5.10;89.50
26707;DHT22;14319;49.422;10.934;2023-02-12T05:58:27;5.20;88.40
26707;DHT22;14319;49.422;10.934;2023-02-12T06:00:27;5.30;87.30
26707;DHT22;14319;49.422;10.934;2023-02-12T06:02:28;5.40;86.50
26707;DHT22;14319;49.422;10.934;2023-02-12T06:04:29;5.40;86.30
26707;DHT22;14319;49.422;10.934;2023-02-12T06:06:30;5.40;86.20
26707;DHT22;14319;49.422;10.934;2023-02-12T06:08:31;5.30;86.40
26707;DHT22;14319;49.422;10.934;2023-02-12T06:10:32;5.30;86.70
26707;DHT22;14319;49.422;10.934;2023-02-12T06:12:32;5.30;86.40
26707;DHT22;14319;49.422;10.934;2023-02-12T06:14:33;5.30;86.60
26707;DHT22;14319;49.422;10.934;2023-02-12T06:16:34;5.30;86.40
26707;DHT22;14319;49.422;10.934;2023-02-12T06:18:35;5.30;86.50
26707;DHT22;14319;49.422;10.934;2023-02-12T06:20:37;5.20;86.50
26707;DHT22;14319;49.422;10.934;2023-02-12T06:22:39;5.10;86.90
26707;DHT22;14319;49.422;10.934;2023-02-12T06:24:39;5.10;87.20
26707;DHT22;14319;49.422;10.934;2023-02-12T06:26:40;5.10;86.90
26707;DHT22;14319;49.422;10.934;2023-02-12T06:28:40;5.20;86.70
26707;DHT22;14319;49.422;10.934;2023-02-12T06:30:41;5.20;86.50
26707;DHT22;14319;49.422;10.934;2023-02-12T06:32:42;5.10;87.10
26707;DHT22;14319;49.422;10.934;2023-02-12T06:34:42;5.00;88.10
26707;DHT22;14319;49.422;10.934;2023-02-12T06:36:44;5.00;88.40
26707;DHT22;14319;49.422;10.934;2023-02-12T06:38:46;4.90;88.30
26707;DHT22;14319;49.422;10.934;2023-02-12T06:40:46;5.00;88.70
26707;DHT22;14319;49.422;10.934;2023-02-12T06:42:47;5.10;88.30
26707;DHT22;14319;49.422;10.934;2023-02-12T06:44:47;5.10;88.10
26707;DHT22;14319;49.422;10.934;2023-02-12T06:46:48;5.10;88.00
26707;DHT22;14319;49.422;10.934;2023-02-12T06:48:55;5.20;87.80
26707;DHT22;14319;49.422;10.934;2023-02-12T06:51:04;5.20;88.20
26707;DHT22;14319;49.422;10.934;2023-02-12T06:53:05;5.20;88.10
26707;DHT22;14319;49.422;10.934;2023-02-12T06:55:06;5.10;88.20
26707;DHT22;14319;49.422;10.934;2023-02-12T06:57:06;5.20;88.20
26707;DHT22;14319;49.422;10.934;2023-02-12T06:59:12;5.20;87.80
26707;DHT22;14319;49.422;10.934;2023-02-12T07:01:15;5.20;88.20
26707;DHT22;14319;49.422;10.934;2023-02-12T07:03:17;5.30;88.50
26707;DHT22;14319;49.422;10.934;2023-02-12T07:05:17;5.30;87.60
26707;DHT22;14319;49.422;10.934;2023-02-12T07:07:18;5.20;87.80
26707;DHT22;14319;49.422;10.934;2023-02-12T07:09:18;5.10;88.10
26707;DHT22;14319;49.422;10.934;2023-02-12T07:11:26;5.10;88.80
26707;DHT22;14319;49.422;10.934;2023-02-12T07:13:27;5.00;89.20
26707;DHT22;14319;49.422;10.934;2023-02-12T07:15:27;5.00;89.70
26707;DHT22;14319;49.422;10.934;2023-02-12T07:17:29;4.90;89.50
26707;DHT22;14319;49.422;10.934;2023-02-12T07:19:30;4.90;89.80
26707;DHT22;14319;49.422;10.934;2023-02-12T07:21:31;4.90;90.00
26707;DHT22;14319;49.422;10.934;2023-02-12T07:23:32;4.90;90.00
26707;DHT22;14319;49.422;10.934;2023-02-12T07:25:33;5.00;89.70
26707;DHT22;14319;49.422;10.934;2023-02-12T07:27:37;5.10;88.60
26707;DHT22;14319;49.422;10.934;2023-02-12T07:29:37;4.90;89.90
26707;DHT22;14319;49.422;10.934;2023-02-12T07:31:38;5.10;89.20
26707;DHT22;14319;49.422;10.934;2023-02-12T07:33:39;5.10;89.00
26707;DHT22;14319;49.422;10.934;2023-02-12T07:35:40;5.20;88.60
26707;DHT22;14319;49.422;10.934;2023-02-12T07:37:41;5.10;88.60
26707;DHT22;14319;49.422;10.934;2023-02-12T07:39:42;5.20;88.60
26707;DHT22;14319;49.422;10.934;2023-02-12T07:41:42;5.10;87.80
26707;DHT22;14319;49.422;10.934;2023-02-12T07:43:44;4.90;89.00
26707;DHT22;14319;49.422;10.934;2023-02-12T07:45:45;5.10;88.90
26707;DHT22;14319;49.422;10.934;2023-02-12T07:47:46;5.20;88.00
26707;DHT22;14319;49.422;10.934;2023-02-12T07:49:46;5.40;87.40
26707;DHT22;14319;49.422;10.934;2023-02-12T07:51:48;5.50;87.00
26707;DHT22;14319;49.422;10.934;2023-02-12T07:53:49;5.50;86.30
26707;DHT22;14319;49.422;10.934;2023-02-12T07:55:50;5.60;86.20
26707;DHT22;14319;49.422;10.934;2023-02-12T07:57:52;5.60;86.20
26707;DHT22;14319;49.422;10.934;2023-02-12T07:59:52;5.60;86.10
26707;DHT22;14319;49.422;10.934;2023-02-12T08:01:53;5.70;86.20
26707;DHT22;14319;49.422;10.934;2023-02-12T08:03:58;5.70;85.90
26707;DHT22;14319;49.422;10.934;2023-02-12T08:05:58;5.70;85.60
26707;DHT22;14319;49.422;10.934;2023-02-12T08:07:59;5.80;85.40
26707;DHT22;14319;49.422;10.934;2023-02-12T08:09:59;5.80;85.30
26707;DHT22;14319;49.422;10.934;2023-02-12T08:12:00;5.80;85.50
26707;DHT22;14319;49.422;10.934;2023-02-12T08:14:03;5.80;85.50
26707;DHT22;14319;49.422;10.934;2023-02-12T08:16:06;5.80;85.80
26707;DHT22;14319;49.422;10.934;2023-02-12T08:18:07;5.90;85.90
26707;DHT22;14319;49.422;10.934;2023-02-12T08:20:08;6.00;85.70
26707;DHT22;14319;49.422;10.934;2023-02-12T08:22:09;6.10;85.70
26707;DHT22;14319;49.422;10.934;2023-02-12T08:24:10;6.20;85.40
26707;DHT22;14319;49.422;10.934;2023-02-12T08:26:16;6.20;85.40
26707;DHT22;14319;49.422;10.934;2023-02-12T08:28:17;6.30;85.50
26707;DHT22;14319;49.422;10.934;2023-02-12T08:30:17;6.30;85.30
26707;DHT22;14319;49.422;10.934;2023-02-12T08:32:18;6.40;85.40
26707;DHT22;14319;49.422;10.934;2023-02-12T08:34:21;6.40;85.40
26707;DHT22;14319;49.422;10.934;2023-02-12T08:36:25;6.40;85.30
26707;DHT22;14319;49.422;10.934;2023-02-12T08:38:26;6.50;85.50
26707;DHT22;14319;49.422;10.934;2023-02-12T08:40:26;6.50;85.50
26707;DHT22;14319;49.422;10.934;2023-02-12T08:42:27;6.50;86.10
26707;DHT22;14319;49.422;10.934;2023-02-12T08:44:28;6.50;85.20
26707;DHT22;14319;49.422;10.934;2023-02-12T08:46:31;6.40;86.20
26707;DHT22;14319;49.422;10.934;2023-02-12T08:48:32;6.40;86.30
26707;DHT22;14319;49.422;10.934;2023-02-12T08:50:33;6.30;86.50
26707;DHT22;14319;49.422;10.934;2023-02-12T08:52:34;6.30;87.00
26707;DHT22;14319;49.422;10.934;2023-02-12T08:54:35;6.50;86.10
26707;DHT22;14319;49.422;10.934;2023-02-12T08:56:35;6.50;85.80
26707;DHT22;14319;49.422;10.934;2023-02-12T08:58:36;6.40;86.60
26707;DHT22;14319;49.422;10.934;2023-02-12T09:00:37;6.20;86.80
26707;DHT22;14319;49.422;10.934;2023-02-12T09:02:37;6.20;87.40
26707;DHT22;14319;49.422;10.934;2023-02-12T09:04:38;6.40;86.90
26707;DHT22;14319;49.422;10.934;2023-02-12T09:06:40;6.60;86.10
26707;DHT22;14319;49.422;10.934;2023-02-12T09:08:41;6.70;85.30
26707;DHT22;14319;49.422;10.934;2023-02-12T09:10:42;6.70;84.80
26707;DHT22;14319;49.422;10.934;2023-02-12T09:12:43;6.60;85.10
26707;DHT22;14319;49.422;10.934;2023-02-12T09:14:43;6.60;85.20
26707;DHT22;14319;49.422;10.934;2023-02-12T09:16:44;6.60;85.10
26707;DHT22;14319;49.422;10.934;2023-02-12T09:18:45;6.60;85.10
26707;DHT22;14319;49.422;10.934;2023-02-12T09:20:45;6.70;85.20
26707;DHT22;14319;49.422;10.934;2023-02-12T09:22:46;6.80;84.80
26707;DHT22;14319;49.422;10.934;2023-02-12T09:24:47;6.90;84.80
26707;DHT22;14319;49.422;10.934;2023-02-12T09:26:47;7.00;84.30
26707;DHT22;14319;49.422;10.934;2023-02-12T09:28:49;7.10;84.20
26707;DHT22;14319;49.422;10.934;2023-02-12T09:30:50;7.10;84.00
26707;DHT22;14319;49.422;10.934;2023-02-12T09:32:50;7.20;84.00
26707;DHT22;14319;49.422;10.934;2023-02-12T09:34:51;7.20;83.80
26707;DHT22;14319;49.422;10.934;2023-02-12T09:36:52;7.20;83.70
26707;DHT22;14319;49.422;10.934;2023-02-12T09:38:52;6.90;84.00
26707;DHT22;14319;49.422;10.934;2023-02-12T09:43:28;6.60;86.10
26707;DHT22;14319;49.422;10.934;2023-02-12T09:45:36;6.70;85.80
26707;DHT22;14319;49.422;10.934;2023-02-12T09:52:28;6.30;88.20
26707;DHT22;14319;49.422;10.934;2023-02-12T09:54:36;6.30;88.60
26707;DHT22;14319;49.422;10.934;2023-02-12T09:56:40;6.30;88.90
26707;DHT22;14319;49.422;10.934;2023-02-12T09:58:51;6.30;89.30
26707;DHT22;14319;49.422;10.934;2023-02-12T10:01:13;6.40;89.00
26707;DHT22;14319;49.422;10.934;2023-02-12T10:03:15;6.70;88.30
26707;DHT22;14319;49.422;10.934;2023-02-12T10:05:19;6.90;87.20
26707;DHT22;14319;49.422;10.934;2023-02-12T10:19:08;6.40;89.50
26707;DHT22;14319;49.422;10.934;2023-02-12T10:21:24;6.80;88.20
26707;DHT22;14319;49.422;10.934;2023-02-12T10:23:50;7.10;86.80
26707;DHT22;14319;49.422;10.934;2023-02-12T10:26:08;7.40;85.70
26707;DHT22;14319;49.422;10.934;2023-02-12T10:28:16;7.60;84.90
26707;DHT22;14319;49.422;10.934;2023-02-12T10:32:42;7.80;84.00
26707;DHT22;14319;49.422;10.934;2023-02-12T10:34:44;7.80;84.10
26707;DHT22;14319;49.422;10.934;2023-02-12T10:36:50;7.90;83.90
26707;DHT22;14319;49.422;10.934;2023-02-12T10:39:03;7.70;83.50
26707;DHT22;14319;49.422;10.934;2023-02-12T10:41:05;7.70;83.90
26707;DHT22;14319;49.422;10.934;2023-02-12T10:43:05;7.80;83.50
26707;DHT22;14319;49.422;10.934;2023-02-12T10:45:15;7.90;83.20
26707;DHT22;14319;49.422;10.934;2023-02-12T10:47:20;8.00;83.10
26707;DHT22;14319;49.422;10.934;2023-02-12T10:49:21;8.10;82.70
26707;DHT22;14319;49.422;10.934;2023-02-12T10:53:48;8.20;82.90
26707;DHT22;14319;49.422;10.934;2023-02-12T10:55:49;8.30;83.00
26707;DHT22;14319;49.422;10.934;2023-02-12T10:57:50;8.40;81.70
26707;DHT22;14319;49.422;10.934;2023-02-12T10:59:54;8.50;81.70
26707;DHT22;14319;49.422;10.934;2023-02-12T11:01:56;8.50;81.90
26707;DHT22;14319;49.422;10.934;2023-02-12T11:03:58;8.50;81.30
26707;DHT22;14319;49.422;10.934;2023-02-12T11:06:16;8.50;81.50
26707;DHT22;14319;49.422;10.934;2023-02-12T11:08:43;8.50;81.60
26707;DHT22;14319;49.422;10.934;2023-02-12T11:10:44;8.50;81.10
26707;DHT22;14319;49.422;10.934;2023-02-12T11:13:26;8.50;81.10
26707;DHT22;14319;49.422;10.934;2023-02-12T11:15:34;8.50;80.80
26707;DHT22;14319;49.422;10.934;2023-02-12T11:17:39;8.40;81.00
26707;DHT22;14319;49.422;10.934;2023-02-12T11:19:40;8.30;81.70
26707;DHT22;14319;49.422;10.934;2023-02-12T11:21:41;8.30;82.20
26707;DHT22;14319;49.422;10.934;2023-02-12T11:23:42;8.20;82.10
26707;DHT22;14319;49.422;10.934;2023-02-12T11:28:01;8.30;82.30
26707;DHT22;14319;49.422;10.934;2023-02-12T11:30:20;8.40;81.30
26707;DHT22;14319;49.422;10.934;2023-02-12T11:32:21;8.50;81.40
26707;DHT22;14319;49.422;10.934;2023-02-12T11:34:21;8.50;81.30
26707;DHT22;14319;49.422;10.934;2023-02-12T11:36:24;8.40;81.20
26707;DHT22;14319;49.422;10.934;2023-02-12T11:38:49;8.40;81.40
26707;DHT22;14319;49.422;10.934;2023-02-12T11:40:55;8.40;81.10
26707;DHT22;14319;49.422;10.934;2023-02-12T11:42:59;8.40;80.90
26707;DHT22;14319;49.422;10.934;2023-02-12T11:45:01;8.30;81.20
26707;DHT22;14319;49.422;10.934;2023-02-12T11:47:07;8.30;81.20
26707;DHT22;14319;49.422;10.934;2023-02-12T11:49:24;8.30;81.40
26707;DHT22;14319;49.422;10.934;2023-02-12T11:51:28;8.20;81.90
26707;DHT22;14319;49.422;10.934;2023-02-12T11:53:36;8.20;82.10
26707;DHT22;14319;49.422;10.934;2023-02-12T11:55:39;8.20;82.30
26707;DHT22;14319;49.422;10.934;2023-02-12T11:57:44;8.10;82.50
26707;DHT22;14319;49.422;10.934;2023-02-12T11:59:46;8.10;82.50
26707;DHT22;14319;49.422;10.934;2023-02-12T12:01:48;8.10;82.70
26707;DHT22;14319;49.422;10.934;2023-02-12T12:06:12;8.00;82.60
26707;DHT22;14319;49.422;10.934;2023-02-12T12:08:26;8.00;82.90
26707;DHT22;14319;49.422;10.934;2023-02-12T12:10:37;8.10;83.00
26707;DHT22;14319;49.422;10.934;2023-02-12T12:12:41;8.20;81.90
26707;DHT22;14319;49.422;10.934;2023-02-12T12:17:14;8.30;81.60
26707;DHT22;14319;49.422;10.934;2023-02-12T12:20:04;8.30;81.40
26707;DHT22;14319;49.422;10.934;2023-02-12T12:22:30;8.40;81.30
26707;DHT22;14319;49.422;10.934;2023-02-12T12:24:56;8.30;81.40
26707;DHT22;14319;49.422;10.934;2023-02-12T12:27:38;8.30;81.30
26707;DHT22;14319;49.422;10.934;2023-02-12T12:30:02;8.30;81.40
26707;DHT22;14319;49.422;10.934;2023-02-12T12:32:08;8.30;81.70
26707;DHT22;14319;49.422;10.934;2023-02-12T12:34:17;8.40;81.40
26707;DHT22;14319;49.422;10.934;2023-02-12T12:36:41;8.20;81.20
26707;DHT22;14319;49.422;10.934;2023-02-12T12:45:52;8.30;81.40
26707;DHT22;14319;49.422;10.934;2023-02-12T12:52:21;8.50;80.50
26707;DHT22;14319;49.422;10.934;2023-02-12T12:56:57;8.50;80.70
26707;DHT22;14319;49.422;10.934;2023-02-12T12:59:29;8.50;81.20
26707;DHT22;14319;49.422;10.934;2023-02-12T13:02:00;8.50;80.50
26707;DHT22;14319;49.422;10.934;2023-02-12T13:04:29;8.60;80.50
26707;DHT22;14319;49.422;10.934;2023-02-12T13:06:40;8.70;80.70
26707;DHT22;14319;49.422;10.934;2023-02-12T13:11:25;8.80;80.60
26707;DHT22;14319;49.422;10.934;2023-02-12T13:13:35;8.80;80.10
26707;DHT22;14319;49.422;10.934;2023-02-12T13:15:42;8.70;80.40
26707;DHT22;14319;49.422;10.934;2023-02-12T13:17:58;8.70;80.40
26707;DHT22;14319;49.422;10.934;2023-02-12T13:20:22;8.70;80.00
26707;DHT22;14319;49.422;10.934;2023-02-12T13:22:52;8.70;80.20
26707;DHT22;14319;49.422;10.934;2023-02-12T13:25:02;8.70;80.00
26707;DHT22;14319;49.422;10.934;2023-02-12T13:27:23;8.60;80.40
26707;DHT22;14319;49.422;10.934;2023-02-12T13:29:30;8.60;80.00
26707;DHT22;14319;49.422;10.934;2023-02-12T13:31:41;8.60;80.60
26707;DHT22;14319;49.422;10.934;2023-02-12T13:33:50;8.70;80.80
26707;DHT22;14319;49.422;10.934;2023-02-12T13:35:55;8.70;81.00
26707;DHT22;14319;49.422;10.934;2023-02-12T13:37:56;8.70;79.80
26707;DHT22;14319;49.422;10.934;2023-02-12T13:39:58;8.70;80.10
26707;DHT22;14319;49.422;10.934;2023-02-12T13:44:55;8.70;80.00
26707;DHT22;14319;49.422;10.934;2023-02-12T13:54:42;8.60;79.60
26707;DHT22;14319;49.422;10.934;2023-02-12T13:56:51;8.50;80.40
26707;DHT22;14319;49.422;10.934;2023-02-12T13:58:54;8.10;80.90
26707;DHT22;14319;49.422;10.934;2023-02-12T14:01:01;7.70;83.30
26707;DHT22;14319;49.422;10.934;2023-02-12T14:03:07;7.40;84.50
26707;DHT22;14319;49.422;10.934;2023-02-12T14:05:16;7.40;84.50
26707;DHT22;14319;49.422;10.934;2023-02-12T14:07:21;7.40;84.70
26707;DHT22;14319;49.422;10.934;2023-02-12T14:09:31;7.50;84.40
26707;DHT22;14319;49.422;10.934;2023-02-12T14:11:33;7.70;84.30
26707;DHT22;14319;49.422;10.934;2023-02-12T14:15:54;7.70;84.10
26707;DHT22;14319;49.422;10.934;2023-02-12T14:22:13;7.60;84.10
26707;DHT22;14319;49.422;10.934;2023-02-12T14:26:37;7.90;82.80
26707;DHT22;14319;49.422;10.934;2023-02-12T14:33:23;8.00;82.60
26707;DHT22;14319;49.422;10.934;2023-02-12T14:37:35;8.00;81.80
26707;DHT22;14319;49.422;10.934;2023-02-12T14:39:36;7.90;81.90
26707;DHT22;14319;49.422;10.934;2023-02-12T14:41:39;7.70;82.50
26707;DHT22;14319;49.422;10.934;2023-02-12T14:43:42;7.50;83.60
26707;DHT22;14319;49.422;10.934;2023-02-12T14:50:59;7.30;84.40
26707;DHT22;14319;49.422;10.934;2023-02-12T14:55:31;7.60;83.10
26707;DHT22;14319;49.422;10.934;2023-02-12T14:59:39;7.20;84.40
26707;DHT22;14319;49.422;10.934;2023-02-12T15:01:41;7.10;84.80
26707;DHT22;14319;49.422;10.934;2023-02-12T15:03:48;7.20;84.90
26707;DHT22;14319;49.422;10.934;2023-02-12T15:06:03;7.40;84.60